Time;durP1;ratioP1;P1;durP2;ratioP2;P2;SDS_P1;SDS_P2;PMS_P1;PMS_P2;Temp;Humidity;BMP_temperature;BMP_pressure;BME280_temperature;BME280_humidity;BME280_pressure;Samples;Min_cycle;Max_cycle;Signal;HPM_P1;HPM_P2
2023/01/13 00:02:12;;;;;;;;;;;2.40;99.90;;;;;;5106057;28;20188;-76
2023/01/13 00:04:37;;;;;;;;;;;2.40;99.90;;;;;;5106217;28;20401;-77
2023/01/13 00:07:03;;;;;;;;;;;2.40;99.90;;;;;;5105803;28;19919;-77
2023/01/13 00:09:28;;;;;;;;;;;2.40;99.90;;;;;;5106794;28;20531;-76
2023/01/13 00:11:55;;;;;;;;;;;2.40;99.90;;;;;;5106381;28;20226;-77
2023/01/13 00:14:21;;;;;;;;;;;2.40;99.90;;;;;;5110970;28;19931;-77
2023/01/13 00:16:46;;;;;;;;;;;2.50;99.90;;;;;;5109451;28;19908;-77
2023/01/13 00:19:12;;;;;;;;;;;2.50;99.90;;;;;;5112413;28;19953;-77
2023/01/13 00:21:38;;;;;;;;;;;2.50;99.90;;;;;;5110503;28;19914;-75
2023/01/13 00:24:03;;;;;;;;;;;2.60;99.90;;;;;;5105888;28;20153;-77
2023/01/13 00:26:29;;;;;;;;;;;2.70;99.90;;;;;;5106058;28;19949;-76
2023/01/13 00:28:56;;;;;;;;;;;2.80;99.90;;;;;;5105489;28;19919;-76
2023/01/13 00:31:22;;;;;;;;;;;2.90;99.90;;;;;;5084427;28;20224;-76
2023/01/13 00:33:48;;;;;;;;;;;2.90;99.90;;;;;;5085001;28;19912;-76
2023/01/13 00:36:15;;;;;;;;;;;2.90;99.90;;;;;;5103480;28;20156;-77
2023/01/13 00:38:41;;;;;;;;;;;3.10;99.90;;;;;;5104522;28;19912;-76
2023/01/13 00:41:08;;;;;;;;;;;3.20;99.90;;;;;;5103730;28;19995;-77
2023/01/13 00:43:35;;;;;;;;;;;3.30;99.90;;;;;;5104293;28;20108;-76
2023/01/13 00:46:01;;;;;;;;;;;3.30;99.90;;;;;;5104355;28;20315;-76
2023/01/13 00:48:27;;;;;;;;;;;3.40;99.90;;;;;;5086755;28;19947;-77
2023/01/13 00:50:56;;;;;;;;;;;3.40;99.90;;;;;;5105183;28;20207;-76
2023/01/13 00:53:21;;;;;;;;;;;3.40;99.90;;;;;;5104963;28;20241;-76
2023/01/13 00:55:47;;;;;;;;;;;3.50;99.90;;;;;;5104730;28;20146;-77
2023/01/13 00:58:14;;;;;;;;;;;3.50;99.90;;;;;;5104983;28;19907;-76
2023/01/13 01:00:40;;;;;;;;;;;3.50;99.90;;;;;;5106454;28;19912;-76
2023/01/13 01:03:11;;;;;;;;;;;3.50;99.90;;;;;;5108881;28;19912;-77
2023/01/13 01:05:39;;;;;;;;;;;5.50;99.90;;;;;;5111408;28;19918;-77
2023/01/13 01:08:05;;;;;;;;;;;3.60;99.90;;;;;;5111899;28;19914;-77
2023/01/13 01:10:30;;;;;;;;;;;3.60;99.90;;;;;;5111990;28;20360;-77
2023/01/13 01:12:56;;;;;;;;;;;3.60;99.90;;;;;;5090014;28;19912;-76
2023/01/13 01:15:22;;;;;;;;;;;3.60;99.90;;;;;;5103268;28;20361;-77
2023/01/13 01:17:47;;;;;;;;;;;3.70;99.90;;;;;;5084530;28;19907;-76
2023/01/13 01:20:13;;;;;;;;;;;3.60;99.90;;;;;;5102935;28;19907;-77
2023/01/13 01:22:38;;;;;;;;;;;3.60;99.90;;;;;;5102587;28;19986;-77
2023/01/13 01:25:04;;;;;;;;;;;3.60;99.90;;;;;;5102333;28;20377;-77
2023/01/13 01:27:30;;;;;;;;;;;3.70;99.90;;;;;;5102500;28;19916;-76
2023/01/13 01:29:56;;;;;;;;;;;3.60;99.90;;;;;;5084252;28;19916;-76
2023/01/13 01:32:21;;;;;;;;;;;3.60;99.90;;;;;;5102325;28;20007;-77
2023/01/13 01:34:47;;;;;;;;;;;3.60;99.90;;;;;;5102486;28;20030;-77
2023/01/13 01:37:12;;;;;;;;;;;3.70;99.90;;;;;;5101932;28;20307;-77
2023/01/13 01:39:38;;;;;;;;;;;3.60;99.90;;;;;;5083395;28;19908;-79
2023/01/13 01:44:48;;;;;;;;;;;3.70;99.90;;;;;;5101564;28;20432;-77
2023/01/13 01:47:17;;;;;;;;;;;3.60;99.90;;;;;;5103102;28;19951;-77
2023/01/13 01:49:43;;;;;;;;;;;3.60;99.90;;;;;;5104740;28;19984;-76
2023/01/13 01:52:14;;;;;;;;;;;3.60;99.90;;;;;;5104309;28;19912;-77
2023/01/13 01:54:39;;;;;;;;;;;3.50;99.90;;;;;;5102647;28;20135;-76
2023/01/13 01:57:07;;;;;;;;;;;3.40;99.90;;;;;;5104358;28;19908;-76
2023/01/13 01:59:34;;;;;;;;;;;3.50;99.90;;;;;;5103361;28;19907;-76
2023/01/13 02:01:59;;;;;;;;;;;3.40;99.90;;;;;;5084775;28;19915;-76
2023/01/13 02:04:28;;;;;;;;;;;3.60;99.90;;;;;;5103660;28;19915;-77
2023/01/13 02:06:55;;;;;;;;;;;3.50;99.90;;;;;;5104286;28;20480;-77
2023/01/13 02:09:21;;;;;;;;;;;3.60;99.90;;;;;;5085162;28;20011;-76
2023/01/13 02:14:33;;;;;;;;;;;3.50;99.90;;;;;;5105245;28;20227;-77
2023/01/13 02:16:58;;;;;;;;;;;3.40;99.90;;;;;;5111115;28;20270;-77
2023/01/13 02:19:44;;;;;;;;;;;3.40;99.90;;;;;;5111021;28;19930;-77
2023/01/13 02:22:22;;;;;;;;;;;3.30;99.90;;;;;;5005458;28;20419;-77
2023/01/13 02:24:53;;;;;;;;;;;3.30;99.90;;;;;;5002348;28;19914;-76
2023/01/13 02:27:18;;;;;;;;;;;3.20;99.90;;;;;;4999495;28;20218;-76
2023/01/13 02:32:31;;;;;;;;;;;3.20;99.90;;;;;;4998860;28;19928;-76
2023/01/13 02:35:04;;;;;;;;;;;3.10;99.90;;;;;;5000712;28;19910;-76
2023/01/13 02:37:32;;;;;;;;;;;3.10;99.90;;;;;;5000169;28;19909;-76
2023/01/13 02:40:00;;;;;;;;;;;3.00;99.90;;;;;;4999663;28;19916;-76
2023/01/13 02:45:27;;;;;;;;;;;3.00;99.90;;;;;;5008067;28;20359;-77
2023/01/13 02:48:00;;;;;;;;;;;3.00;99.90;;;;;;5024680;28;19916;-76
2023/01/13 02:50:34;;;;;;;;;;;2.90;99.90;;;;;;5023516;28;20540;-76
2023/01/13 02:53:02;;;;;;;;;;;3.00;99.90;;;;;;5022310;28;20048;-76
2023/01/13 02:55:31;;;;;;;;;;;3.00;99.90;;;;;;5022604;28;19909;-76
2023/01/13 02:57:58;;;;;;;;;;;3.00;99.90;;;;;;5023040;28;19910;-76
2023/01/13 03:00:25;;;;;;;;;;;3.00;99.90;;;;;;5101530;28;19907;-76
2023/01/13 03:02:52;;;;;;;;;;;3.10;99.90;;;;;;5108065;28;19965;-76
2023/01/13 03:05:18;;;;;;;;;;;3.10;99.90;;;;;;5107116;28;19915;-76
2023/01/13 03:07:52;;;;;;;;;;;3.20;99.90;;;;;;5106207;28;19908;-76
2023/01/13 03:10:23;;;;;;;;;;;3.20;99.90;;;;;;5106288;28;19981;-76
2023/01/13 03:12:57;;;;;;;;;;;3.20;99.90;;;;;;5107049;28;19916;-76
2023/01/13 03:15:35;;;;;;;;;;;3.20;99.90;;;;;;5107672;28;20132;-77
2023/01/13 03:18:10;;;;;;;;;;;3.20;99.90;;;;;;5107817;28;20022;-76
2023/01/13 03:20:40;;;;;;;;;;;3.20;99.90;;;;;;5108476;28;19911;-76
2023/01/13 03:23:18;;;;;;;;;;;3.20;99.90;;;;;;5105817;28;19908;-76
2023/01/13 03:25:49;;;;;;;;;;;3.30;99.90;;;;;;5096790;28;19908;-77
2023/01/13 03:28:26;;;;;;;;;;;3.30;99.90;;;;;;5114333;28;19922;-76
2023/01/13 03:30:57;;;;;;;;;;;3.30;99.90;;;;;;5092852;28;19919;-77
2023/01/13 03:33:25;;;;;;;;;;;3.40;99.90;;;;;;5106718;28;20498;-76
2023/01/13 03:35:54;;;;;;;;;;;3.40;99.90;;;;;;5106600;28;19916;-76
2023/01/13 03:38:34;;;;;;;;;;;3.40;99.90;;;;;;5107275;28;20350;-76
2023/01/13 03:41:03;;;;;;;;;;;3.40;99.90;;;;;;5110056;28;19908;-78
2023/01/13 03:46:26;;;;;;;;;;;3.50;99.90;;;;;;5107809;28;19919;-76
2023/01/13 03:48:55;;;;;;;;;;;3.50;99.90;;;;;;5109097;28;20346;-76
2023/01/13 03:51:22;;;;;;;;;;;3.50;99.90;;;;;;5110891;28;19919;-76
2023/01/13 03:53:52;;;;;;;;;;;3.60;99.90;;;;;;5116059;28;19915;-76
2023/01/13 03:56:21;;;;;;;;;;;3.60;99.90;;;;;;5115147;28;20380;-76
2023/01/13 03:58:48;;;;;;;;;;;3.60;99.90;;;;;;5114863;28;19957;-77
2023/01/13 04:01:15;;;;;;;;;;;3.70;99.90;;;;;;5106321;28;19919;-76
2023/01/13 04:04:01;;;;;;;;;;;3.70;99.90;;;;;;5112141;28;20083;-77
2023/01/13 04:06:37;;;;;;;;;;;3.70;99.90;;;;;;5112553;28;19908;-77
2023/01/13 04:09:06;;;;;;;;;;;3.60;99.90;;;;;;5093135;28;19912;-77
2023/01/13 04:11:35;;;;;;;;;;;3.50;99.90;;;;;;5108337;28;19920;-76
2023/01/13 04:14:02;;;;;;;;;;;3.40;99.90;;;;;;5109133;28;19922;-77
2023/01/13 04:16:27;;;;;;;;;;;3.50;99.90;;;;;;5111935;28;19918;-76
2023/01/13 04:18:53;;;;;;;;;;;3.40;99.90;;;;;;5109526;28;19934;-76
2023/01/13 04:21:19;;;;;;;;;;;3.50;99.90;;;;;;5111993;28;20135;-77
2023/01/13 04:23:45;;;;;;;;;;;3.40;99.90;;;;;;5115366;28;20468;-76
2023/01/13 04:26:10;;;;;;;;;;;3.40;99.90;;;;;;5114602;28;19908;-77
2023/01/13 04:28:36;;;;;;;;;;;3.20;99.90;;;;;;5090041;28;19920;-76
2023/01/13 04:31:01;;;;;;;;;;;3.30;99.90;;;;;;5067202;28;19974;-77
2023/01/13 04:33:27;;;;;;;;;;;3.30;99.90;;;;;;5086864;28;20512;-77
2023/01/13 04:35:54;;;;;;;;;;;3.20;99.90;;;;;;5085003;28;19916;-77
2023/01/13 04:38:20;;;;;;;;;;;3.40;99.90;;;;;;5084573;28;19908;-76
2023/01/13 04:40:45;;;;;;;;;;;3.40;99.90;;;;;;5084089;28;19920;-76
2023/01/13 04:43:11;;;;;;;;;;;3.30;99.90;;;;;;5084543;28;19908;-76
2023/01/13 04:45:37;;;;;;;;;;;3.40;99.90;;;;;;5084352;28;20344;-76
2023/01/13 04:48:03;;;;;;;;;;;3.20;99.90;;;;;;5082289;28;19967;-76
2023/01/13 04:50:30;;;;;;;;;;;3.20;99.90;;;;;;5081869;28;19920;-76
2023/01/13 04:52:55;;;;;;;;;;;3.30;99.90;;;;;;5082977;28;19923;-76
2023/01/13 04:55:27;;;;;;;;;;;3.20;99.90;;;;;;5085236;28;20358;-76
2023/01/13 04:57:52;;;;;;;;;;;3.10;99.90;;;;;;5089873;28;20145;-76
2023/01/13 05:00:19;;;;;;;;;;;3.00;99.90;;;;;;5082105;28;20400;-76
2023/01/13 05:02:45;;;;;;;;;;;2.90;99.90;;;;;;5081471;28;20402;-76
2023/01/13 05:05:11;;;;;;;;;;;2.90;99.90;;;;;;5081538;28;19973;-76
2023/01/13 05:07:36;;;;;;;;;;;2.80;99.90;;;;;;5082411;28;20428;-76
2023/01/13 05:10:02;;;;;;;;;;;2.80;99.90;;;;;;5081861;28;19916;-76
2023/01/13 05:18:04;;;;;;;;;;;2.80;99.90;;;;;;5081544;28;19915;-76
2023/01/13 05:20:30;;;;;;;;;;;2.80;99.90;;;;;;5062429;28;19950;-76
2023/01/13 05:25:42;;;;;;;;;;;2.90;99.90;;;;;;5081431;28;20297;-76
2023/01/13 05:28:08;;;;;;;;;;;2.90;99.90;;;;;;5092735;28;20007;-76
2023/01/13 05:30:44;;;;;;;;;;;3.00;99.90;;;;;;5103547;28;20015;-76
2023/01/13 05:33:11;;;;;;;;;;;3.00;99.90;;;;;;5085423;28;19908;-77
2023/01/13 05:35:38;;;;;;;;;;;3.10;99.90;;;;;;5104145;28;20219;-76
2023/01/13 05:38:13;;;;;;;;;;;3.20;99.90;;;;;;5104225;28;20119;-76
2023/01/13 05:43:25;;;;;;;;;;;3.10;99.90;;;;;;5110849;28;19929;-76
2023/01/13 05:46:08;;;;;;;;;;;3.10;99.90;;;;;;5111093;28;19912;-78
2023/01/13 05:48:34;;;;;;;;;;;3.20;99.90;;;;;;5105953;28;19911;-76
2023/01/13 05:51:01;;;;;;;;;;;3.10;99.90;;;;;;5103813;28;20177;-76
2023/01/13 05:53:27;;;;;;;;;;;3.10;99.90;;;;;;5084759;28;20384;-76
2023/01/13 05:55:53;;;;;;;;;;;3.10;99.90;;;;;;5108375;28;19908;-76
2023/01/13 05:58:19;;;;;;;;;;;3.20;99.90;;;;;;5108335;28;20123;-76
2023/01/13 06:00:45;;;;;;;;;;;3.20;99.90;;;;;;5106169;28;20050;-76
2023/01/13 06:03:11;;;;;;;;;;;3.10;99.90;;;;;;5101501;28;20441;-76
2023/01/13 06:05:37;;;;;;;;;;;3.10;99.90;;;;;;5101605;28;20413;-76
2023/01/13 06:08:03;;;;;;;;;;;3.10;99.90;;;;;;5101289;28;20304;-76
2023/01/13 06:10:29;;;;;;;;;;;3.20;99.90;;;;;;5102560;28;19959;-76
2023/01/13 06:12:55;;;;;;;;;;;3.30;99.90;;;;;;5100886;28;19939;-76
2023/01/13 06:15:21;;;;;;;;;;;3.20;99.90;;;;;;5101691;28;19915;-76
2023/01/13 06:17:53;;;;;;;;;;;3.90;99.90;;;;;;5102746;28;19908;-76
2023/01/13 06:20:19;;;;;;;;;;;3.10;99.90;;;;;;5102860;28;19912;-76
2023/01/13 06:22:46;;;;;;;;;;;3.10;99.90;;;;;;5103406;28;19989;-77
2023/01/13 06:25:41;;;;;;;;;;;3.10;99.90;;;;;;5111901;28;19965;-76
2023/01/13 06:28:07;;;;;;;;;;;3.20;99.90;;;;;;5013045;28;19936;-76
2023/01/13 06:30:37;;;;;;;;;;;3.10;99.90;;;;;;5008869;28;19981;-76
2023/01/13 06:33:04;;;;;;;;;;;3.10;99.90;;;;;;5006693;28;19910;-77
2023/01/13 06:35:33;;;;;;;;;;;3.10;99.90;;;;;;4991965;28;20398;-76
2023/01/13 06:38:01;;;;;;;;;;;3.20;99.90;;;;;;5003786;28;19925;-77
2023/01/13 06:40:26;;;;;;;;;;;3.10;99.90;;;;;;5003058;28;20319;-76
2023/01/13 06:45:38;;;;;;;;;;;3.10;99.90;;;;;;5003027;28;19916;-77
2023/01/13 06:48:03;;;;;;;;;;;3.10;99.90;;;;;;5002725;28;20438;-77
2023/01/13 06:50:29;;;;;;;;;;;3.10;99.90;;;;;;5003961;28;19917;-77
2023/01/13 06:52:57;;;;;;;;;;;3.20;99.90;;;;;;5003946;28;19910;-77
2023/01/13 06:55:22;;;;;;;;;;;3.20;99.90;;;;;;4987637;28;19960;-76
2023/01/13 06:57:53;;;;;;;;;;;3.20;99.90;;;;;;5003148;28;20386;-76
2023/01/13 07:00:19;;;;;;;;;;;3.20;99.90;;;;;;5004425;28;20291;-77
2023/01/13 07:02:44;;;;;;;;;;;3.10;99.90;;;;;;5005563;28;19909;-76
2023/01/13 07:05:11;;;;;;;;;;;3.00;99.90;;;;;;5068702;28;20006;-77
2023/01/13 07:07:38;;;;;;;;;;;3.00;99.90;;;;;;5094491;28;19908;-76
2023/01/13 07:10:04;;;;;;;;;;;3.00;99.90;;;;;;5112338;28;20458;-77
2023/01/13 07:12:30;;;;;;;;;;;3.00;99.90;;;;;;5113189;28;19907;-77
2023/01/13 07:20:56;;;;;;;;;;;2.90;99.90;;;;;;5009981;28;19917;-76
2023/01/13 07:23:21;;;;;;;;;;;3.20;99.90;;;;;;4996109;28;19918;-77
2023/01/13 07:25:47;;;;;;;;;;;3.10;99.90;;;;;;5012699;28;20044;-76
2023/01/13 07:28:13;;;;;;;;;;;3.20;99.90;;;;;;5012334;28;19921;-76
2023/01/13 07:30:39;;;;;;;;;;;3.10;99.90;;;;;;4994927;28;19918;-76
2023/01/13 07:33:04;;;;;;;;;;;3.10;99.90;;;;;;5009750;28;19910;-76
2023/01/13 07:35:30;;;;;;;;;;;3.20;99.90;;;;;;5009082;28;19981;-76
2023/01/13 07:37:55;;;;;;;;;;;3.20;99.90;;;;;;4990052;28;20295;-76
2023/01/13 07:40:21;;;;;;;;;;;3.30;99.90;;;;;;4985235;28;19914;-76
2023/01/13 07:43:47;;;;;;;;;;;3.30;99.90;;;;;;4985146;28;20351;-76
2023/01/13 07:45:42;;;;;;;;;;;3.40;99.90;;;;;;4997124;28;19917;-76
2023/01/13 07:48:07;;;;;;;;;;;3.50;99.90;;;;;;4984434;28;20001;-76
2023/01/13 07:50:33;;;;;;;;;;;3.40;99.90;;;;;;4984431;28;19917;-76
2023/01/13 07:53:23;;;;;;;;;;;4.10;99.90;;;;;;5001217;28;20360;-75
2023/01/13 07:55:49;;;;;;;;;;;3.50;99.90;;;;;;4981439;28;19952;-76
2023/01/13 07:58:15;;;;;;;;;;;2.50;99.90;;;;;;5089831;28;19954;-76
2023/01/13 08:00:40;;;;;;;;;;;3.60;99.90;;;;;;5103192;28;20373;-76
2023/01/13 08:03:06;;;;;;;;;;;4.20;99.90;;;;;;5084164;28;20044;-75
2023/01/13 08:05:33;;;;;;;;;;;3.80;99.90;;;;;;5103007;28;19928;-76
2023/01/13 08:07:59;;;;;;;;;;;3.70;99.90;;;;;;5084732;28;20006;-76
2023/01/13 08:10:25;;;;;;;;;;;3.90;99.90;;;;;;5103267;28;20018;-76
2023/01/13 08:15:35;;;;;;;;;;;4.20;99.90;;;;;;5102854;28;19915;-76
2023/01/13 08:18:00;;;;;;;;;;;4.30;99.90;;;;;;5101783;28;20002;-76
2023/01/13 08:20:26;;;;;;;;;;;5.90;99.90;;;;;;5084063;28;19946;-76
2023/01/13 08:22:58;;;;;;;;;;;4.40;99.90;;;;;;5102181;28;20313;-76
2023/01/13 08:25:25;;;;;;;;;;;4.50;99.90;;;;;;5102424;28;19912;-76
2023/01/13 08:27:50;;;;;;;;;;;4.60;99.90;;;;;;5102621;28;19924;-76
2023/01/13 08:30:17;;;;;;;;;;;4.40;99.90;;;;;;5102649;28;20606;-76
2023/01/13 08:32:43;;;;;;;;;;;4.40;99.90;;;;;;5084290;28;19904;-76
2023/01/13 08:35:09;;;;;;;;;;;5.80;99.90;;;;;;5103578;28;20726;-76
2023/01/13 08:37:35;;;;;;;;;;;4.50;99.90;;;;;;5085900;28;19907;-76
2023/01/13 08:40:00;;;;;;;;;;;4.70;99.90;;;;;;5086002;28;20461;-76
2023/01/13 08:42:26;;;;;;;;;;;4.70;99.90;;;;;;5105804;28;19904;-76
2023/01/13 08:44:53;;;;;;;;;;;4.70;99.90;;;;;;5089301;28;19911;-76
2023/01/13 08:47:19;;;;;;;;;;;4.00;99.90;;;;;;5090473;28;19908;-76
2023/01/13 08:49:44;;;;;;;;;;;4.60;99.90;;;;;;5111095;28;19919;-76
2023/01/13 08:52:10;;;;;;;;;;;4.60;99.90;;;;;;5102789;28;20568;-75
2023/01/13 08:54:38;;;;;;;;;;;4.50;99.90;;;;;;5101793;28;20484;-76
2023/01/13 08:57:04;;;;;;;;;;;4.60;99.90;;;;;;5082890;28;20545;-78
2023/01/13 08:59:30;;;;;;;;;;;4.70;99.90;;;;;;5101643;28;19962;-76
2023/01/13 09:01:56;;;;;;;;;;;4.80;99.90;;;;;;5102200;28;19914;-76
2023/01/13 09:04:22;;;;;;;;;;;4.80;99.90;;;;;;5101089;28;20571;-77
2023/01/13 09:06:51;;;;;;;;;;;4.80;99.90;;;;;;5100965;28;19919;-76
2023/01/13 09:09:17;;;;;;;;;;;4.90;99.90;;;;;;5100337;28;19904;-76
2023/01/13 09:14:30;;;;;;;;;;;4.90;99.90;;;;;;5101945;28;19965;-77
2023/01/13 09:16:55;;;;;;;;;;;5.00;99.90;;;;;;5101442;28;19954;-77
2023/01/13 09:19:21;;;;;;;;;;;5.40;99.90;;;;;;5101249;28;20603;-76
2023/01/13 09:21:47;;;;;;;;;;;5.20;99.90;;;;;;5101160;28;19908;-76
2023/01/13 09:24:13;;;;;;;;;;;5.40;99.90;;;;;;5102949;28;20041;-76
2023/01/13 09:26:42;;;;;;;;;;;5.50;99.90;;;;;;5089157;28;19912;-77
2023/01/13 09:29:07;;;;;;;;;;;5.60;99.90;;;;;;5104520;28;19945;-76
2023/01/13 09:31:33;;;;;;;;;;;5.70;99.90;;;;;;5100566;28;19954;-76
2023/01/13 09:36:44;;;;;;;;;;;6.00;99.90;;;;;;5099640;28;20383;-77
2023/01/13 09:39:10;;;;;;;;;;;6.10;99.90;;;;;;5103332;28;19908;-79
2023/01/13 09:44:44;;;;;;;;;;;6.10;99.90;;;;;;5101526;28;19915;-76
2023/01/13 09:47:24;;;;;;;;;;;6.20;99.90;;;;;;4997789;28;20568;-76
2023/01/13 09:49:50;;;;;;;;;;;6.10;99.90;;;;;;4997364;28;19918;-77
2023/01/13 09:52:18;;;;;;;;;;;6.10;99.90;;;;;;4998616;28;20007;-77
2023/01/13 09:54:47;;;;;;;;;;;6.10;99.90;;;;;;4997895;28;20522;-77
2023/01/13 09:57:16;;;;;;;;;;;6.40;99.90;;;;;;4997274;28;20466;-77
2023/01/13 09:59:42;;;;;;;;;;;6.30;99.90;;;;;;4997033;28;20191;-76
2023/01/13 10:02:11;;;;;;;;;;;6.20;99.90;;;;;;4997749;28;20400;-77
2023/01/13 10:04:36;;;;;;;;;;;6.10;99.90;;;;;;4997212;28;19928;-77
2023/01/13 10:07:04;;;;;;;;;;;6.20;99.90;;;;;;4997297;28;19909;-76
2023/01/13 10:09:38;;;;;;;;;;;6.20;99.90;;;;;;4997255;28;20403;-77
2023/01/13 10:14:55;;;;;;;;;;;6.70;99.90;;;;;;4997227;28;20087;-76
2023/01/13 10:17:43;;;;;;;;;;;7.00;99.90;;;;;;4979683;28;20265;-77
2023/01/13 10:20:11;;;;;;;;;;;7.20;99.90;;;;;;4979933;28;20382;-76
2023/01/13 10:22:37;;;;;;;;;;;7.30;99.90;;;;;;4996772;28;19944;-77
2023/01/13 10:25:24;;;;;;;;;;;7.20;99.90;;;;;;5079217;28;19962;-76
2023/01/13 10:27:51;;;;;;;;;;;7.00;99.90;;;;;;5099654;28;19920;-77
2023/01/13 10:30:19;;;;;;;;;;;7.00;99.90;;;;;;5099777;28;20269;-76
2023/01/13 10:32:56;;;;;;;;;;;6.90;99.90;;;;;;5099490;28;20440;-77
2023/01/13 10:35:42;;;;;;;;;;;7.10;99.90;;;;;;5100403;28;19919;-76
2023/01/13 10:38:14;;;;;;;;;;;7.20;99.90;;;;;;5066363;28;19990;-76
2023/01/13 10:40:46;;;;;;;;;;;7.20;99.90;;;;;;5102644;28;19962;-77
2023/01/13 10:43:12;;;;;;;;;;;7.10;99.90;;;;;;5101905;28;19912;-77
2023/01/13 10:45:38;;;;;;;;;;;7.10;99.90;;;;;;5102292;28;20107;-77
2023/01/13 10:48:11;;;;;;;;;;;7.10;99.90;;;;;;5100558;28;20317;-76
2023/01/13 10:50:37;;;;;;;;;;;7.10;99.90;;;;;;5101165;28;19919;-76
2023/01/13 10:53:17;;;;;;;;;;;7.20;99.90;;;;;;5107080;28;19919;-76
2023/01/13 10:55:43;;;;;;;;;;;7.20;99.90;;;;;;5100795;28;19908;-77
2023/01/13 10:58:19;;;;;;;;;;;7.10;99.90;;;;;;5100541;28;20028;-76
2023/01/13 11:00:45;;;;;;;;;;;7.20;99.90;;;;;;5100582;28;20301;-76
2023/01/13 11:03:16;;;;;;;;;;;7.10;99.90;;;;;;5100752;28;19961;-77
2023/01/13 11:05:50;;;;;;;;;;;6.90;99.90;;;;;;5100264;28;20421;-77
2023/01/13 11:08:17;;;;;;;;;;;6.90;99.90;;;;;;5081650;28;20196;-77
2023/01/13 11:10:47;;;;;;;;;;;6.80;99.90;;;;;;5098907;28;19977;-76
2023/01/13 11:13:15;;;;;;;;;;;6.70;99.90;;;;;;5102837;28;20097;-77
2023/01/13 11:15:54;;;;;;;;;;;6.90;99.90;;;;;;5106087;28;20365;-77
2023/01/13 11:18:25;;;;;;;;;;;7.10;99.90;;;;;;5103693;28;19911;-76
2023/01/13 11:20:51;;;;;;;;;;;7.30;99.90;;;;;;5104573;28;20006;-77
2023/01/13 11:23:21;;;;;;;;;;;7.40;99.90;;;;;;5102921;28;20085;-76
2023/01/13 11:25:51;;;;;;;;;;;7.70;99.90;;;;;;5089368;28;19938;-77
2023/01/13 11:28:19;;;;;;;;;;;7.80;99.90;;;;;;5103950;28;19995;-77
2023/01/13 11:31:03;;;;;;;;;;;7.80;99.90;;;;;;5104151;28;20432;-77
2023/01/13 11:33:40;;;;;;;;;;;8.10;99.90;;;;;;5085601;28;19916;-77
2023/01/13 11:36:24;;;;;;;;;;;8.40;99.90;;;;;;5103596;28;19919;-77
2023/01/13 11:39:00;;;;;;;;;;;8.50;99.90;;;;;;5105291;28;20584;-76
2023/01/13 11:41:35;;;;;;;;;;;8.60;99.90;;;;;;5091457;28;19975;-77
2023/01/13 11:44:19;;;;;;;;;;;8.70;99.90;;;;;;5110283;28;19915;-77
2023/01/13 11:46:47;;;;;;;;;;;8.30;99.90;;;;;;5109633;28;20167;-77
2023/01/13 11:49:33;;;;;;;;;;;8.40;99.90;;;;;;5106415;28;19922;-77
2023/01/13 11:52:05;;;;;;;;;;;8.30;99.90;;;;;;5084593;28;19988;-77
2023/01/13 11:54:30;;;;;;;;;;;8.40;99.90;;;;;;5102701;28;19910;-77
2023/01/13 11:57:08;;;;;;;;;;;8.40;99.90;;;;;;5104508;28;20145;-77
2023/01/13 11:59:37;;;;;;;;;;;8.40;99.90;;;;;;5110376;27;19904;-78
2023/01/13 12:02:20;;;;;;;;;;;8.30;99.90;;;;;;5109154;28;19987;-77
2023/01/13 12:04:58;;;;;;;;;;;8.50;99.90;;;;;;5110268;28;19919;-77
2023/01/13 12:07:35;;;;;;;;;;;8.20;99.90;;;;;;5111185;28;19908;-76
2023/01/13 12:10:22;;;;;;;;;;;8.30;99.90;;;;;;5106146;28;19938;-76
2023/01/13 12:13:20;;;;;;;;;;;8.20;99.90;;;;;;5088860;28;19965;-76
2023/01/13 12:15:53;;;;;;;;;;;8.30;99.90;;;;;;5008631;28;20133;-76
2023/01/13 12:18:36;;;;;;;;;;;8.10;99.90;;;;;;4999381;28;19914;-77
2023/01/13 12:21:02;;;;;;;;;;;8.10;99.90;;;;;;4999140;28;20024;-76
2023/01/13 12:23:33;;;;;;;;;;;8.20;99.90;;;;;;4998134;28;20044;-76
2023/01/13 12:26:06;;;;;;;;;;;8.20;99.90;;;;;;5000187;28;19924;-76
2023/01/13 12:28:54;;;;;;;;;;;8.20;99.90;;;;;;5000900;28;20009;-76
2023/01/13 12:31:20;;;;;;;;;;;8.00;99.90;;;;;;5001623;28;20675;-79
2023/01/13 12:34:08;;;;;;;;;;;8.10;99.90;;;;;;5002150;28;19921;-76
2023/01/13 12:36:46;;;;;;;;;;;8.20;99.90;;;;;;5000470;28;19909;-78
2023/01/13 12:39:30;;;;;;;;;;;8.30;99.90;;;;;;5001369;28;19921;-76
2023/01/13 12:45:05;;;;;;;;;;;8.30;99.90;;;;;;5002589;28;20049;-76
2023/01/13 12:47:44;;;;;;;;;;;8.60;99.90;;;;;;4998833;28;19917;-76
2023/01/13 12:50:25;;;;;;;;;;;8.80;99.90;;;;;;4982864;28;19922;-76
2023/01/13 12:52:54;;;;;;;;;;;8.40;99.90;;;;;;5101866;28;19915;-76
2023/01/13 12:55:21;;;;;;;;;;;8.60;99.90;;;;;;5102123;28;19904;-77
2023/01/13 12:58:05;;;;;;;;;;;8.90;99.90;;;;;;5084522;28;19904;-76
2023/01/13 13:00:50;;;;;;;;;;;8.90;99.90;;;;;;5101688;28;19919;-76
2023/01/13 13:03:45;;;;;;;;;;;8.30;99.90;;;;;;5100465;28;19915;-76
2023/01/13 13:06:14;;;;;;;;;;;8.00;99.90;;;;;;4982845;28;19925;-76
2023/01/13 13:08:40;;;;;;;;;;;8.50;99.90;;;;;;5076091;28;19911;-76
2023/01/13 13:13:56;;;;;;;;;;;7.50;99.90;;;;;;5101618;28;20409;-76
2023/01/13 13:16:25;;;;;;;;;;;7.60;99.90;;;;;;5102809;28;19912;-76
2023/01/13 13:18:51;;;;;;;;;;;7.60;99.90;;;;;;5101340;28;19915;-76
2023/01/13 13:21:16;;;;;;;;;;;7.50;99.90;;;;;;5102492;28;19908;-76
2023/01/13 13:23:54;;;;;;;;;;;7.60;99.90;;;;;;5101368;28;19912;-78
2023/01/13 13:26:44;;;;;;;;;;;7.30;99.90;;;;;;5084286;28;19908;-76
2023/01/13 13:29:31;;;;;;;;;;;7.60;99.90;;;;;;5000399;28;19961;-77
2023/01/13 13:32:20;;;;;;;;;;;7.50;99.90;;;;;;4998946;28;20470;-76
2023/01/13 13:34:57;;;;;;;;;;;7.30;99.90;;;;;;4940436;28;19925;-76
2023/01/13 13:37:25;;;;;;;;;;;7.40;99.90;;;;;;4940267;29;20078;-76
2023/01/13 13:48:24;;;;;;;;;;;7.40;99.90;;;;;;4932221;29;19922;-76
2023/01/13 13:50:56;;;;;;;;;;;7.50;99.90;;;;;;4934971;29;19922;-76
2023/01/13 13:53:23;;;;;;;;;;;7.50;99.90;;;;;;4934918;29;19910;-77
2023/01/13 13:55:53;;;;;;;;;;;7.70;99.90;;;;;;4949564;29;19917;-76
2023/01/13 13:58:18;;;;;;;;;;;7.70;99.90;;;;;;4949509;29;20032;-77
2023/01/13 14:00:46;;;;;;;;;;;7.80;99.90;;;;;;4945045;29;20645;-76
2023/01/13 14:03:24;;;;;;;;;;;7.90;99.90;;;;;;4929818;29;19911;-77
2023/01/13 14:05:57;;;;;;;;;;;8.00;99.90;;;;;;4976916;28;19917;-78
2023/01/13 14:08:23;;;;;;;;;;;8.00;99.90;;;;;;5045148;28;20008;-76
2023/01/13 14:10:49;;;;;;;;;;;8.10;99.90;;;;;;5045186;28;19917;-77
2023/01/13 14:13:18;;;;;;;;;;;9.90;99.90;;;;;;5102449;28;19927;-76
2023/01/13 14:15:45;;;;;;;;;;;8.10;99.90;;;;;;5102990;28;19907;-76
2023/01/13 14:18:12;;;;;;;;;;;8.30;99.90;;;;;;5102798;28;19908;-78
2023/01/13 14:20:38;;;;;;;;;;;8.50;99.90;;;;;;5083701;28;20049;-77
2023/01/13 14:23:04;;;;;;;;;;;8.70;99.90;;;;;;5102067;28;20615;-77
2023/01/13 14:25:32;;;;;;;;;;;8.90;99.90;;;;;;5103059;28;19908;-76
2023/01/13 14:27:58;;;;;;;;;;;8.90;99.90;;;;;;5088373;28;19993;-77
2023/01/13 14:30:27;;;;;;;;;;;9.00;99.90;;;;;;5108903;28;19916;-77
2023/01/13 14:32:52;;;;;;;;;;;9.10;99.90;;;;;;5109094;28;19915;-77
2023/01/13 14:35:18;;;;;;;;;;;9.00;99.90;;;;;;5096601;28;19916;-77
2023/01/13 14:37:54;;;;;;;;;;;8.80;99.90;;;;;;5096541;28;20548;-77
2023/01/13 14:40:32;;;;;;;;;;;8.60;99.90;;;;;;5097370;28;20237;-77
2023/01/13 14:42:59;;;;;;;;;;;8.30;99.90;;;;;;5115039;28;19991;-77
2023/01/13 14:45:25;;;;;;;;;;;8.20;99.90;;;;;;5116294;28;19904;-77
2023/01/13 14:47:52;;;;;;;;;;;7.30;99.90;;;;;;5121080;28;19912;-76
2023/01/13 14:50:20;;;;;;;;;;;7.80;99.90;;;;;;5116898;28;20507;-77
2023/01/13 14:52:54;;;;;;;;;;;7.60;99.90;;;;;;5095682;28;19911;-76
2023/01/13 14:55:27;;;;;;;;;;;7.20;99.90;;;;;;5108538;28;19915;-76
2023/01/13 14:58:13;;;;;;;;;;;7.10;99.90;;;;;;5109006;28;20003;-76
2023/01/13 15:00:39;;;;;;;;;;;6.90;99.90;;;;;;5112670;28;19931;-77
2023/01/13 15:03:06;;;;;;;;;;;6.70;99.90;;;;;;5113439;28;19914;-76
2023/01/13 15:05:37;;;;;;;;;;;6.70;99.90;;;;;;5088645;28;19916;-77
2023/01/13 15:08:05;;;;;;;;;;;6.60;99.90;;;;;;5105096;28;20493;-76
2023/01/13 15:10:54;;;;;;;;;;;6.50;99.90;;;;;;5104422;28;19922;-76
2023/01/13 15:13:49;;;;;;;;;;;6.40;99.90;;;;;;5085855;28;19914;-76
2023/01/13 15:16:17;;;;;;;;;;;6.30;99.90;;;;;;5071916;28;19903;-76
2023/01/13 15:18:43;;;;;;;;;;;6.30;99.90;;;;;;5103387;28;19911;-77
2023/01/13 15:21:09;;;;;;;;;;;6.20;99.90;;;;;;5103035;28;19908;-76
2023/01/13 15:23:35;;;;;;;;;;;6.30;99.90;;;;;;5102419;28;20520;-76
2023/01/13 15:26:01;;;;;;;;;;;6.30;99.90;;;;;;5084717;28;19915;-76
2023/01/13 15:28:27;;;;;;;;;;;6.20;99.90;;;;;;5088552;28;19931;-76
2023/01/13 15:30:53;;;;;;;;;;;6.20;99.90;;;;;;5082142;28;19931;-77
2023/01/13 15:33:19;;;;;;;;;;;6.20;99.90;;;;;;5082062;28;19994;-77
2023/01/13 15:35:47;;;;;;;;;;;6.10;99.90;;;;;;5082395;28;20222;-78
2023/01/13 15:38:14;;;;;;;;;;;6.10;99.90;;;;;;5065202;28;19909;-76
2023/01/13 15:40:40;;;;;;;;;;;5.90;99.90;;;;;;5082526;28;19904;-76
2023/01/13 15:48:41;;;;;;;;;;;5.60;99.90;;;;;;5080997;28;19911;-76
2023/01/13 15:51:08;;;;;;;;;;;5.40;99.90;;;;;;5081785;28;19912;-76
2023/01/13 15:53:40;;;;;;;;;;;5.20;99.90;;;;;;5082261;28;19912;-77